createdAt,value
2023-03-18T00:00:32.734Z,98145.97
2023-03-18T00:01:35.198Z,98143.25
2023-03-18T00:02:39.045Z,98149.75
2023-03-18T00:03:41.030Z,98140.88
2023-03-18T00:04:42.855Z,98142.16
2023-03-18T00:05:45.586Z,98149.44
2023-03-18T00:06:47.851Z,98140.06
2023-03-18T00:07:50.313Z,98142.75
2023-03-18T00:08:52.548Z,98137.66
2023-03-18T00:09:54.372Z,98135.53
2023-03-18T00:10:56.913Z,98142.53
2023-03-18T00:11:59.123Z,98141.16
2023-03-18T00:13:04.434Z,98136.06
2023-03-18T00:14:08.703Z,98137.13
2023-03-18T00:15:14.223Z,98143.31
2023-03-18T00:16:17.000Z,98140.94
2023-03-18T00:17:20.328Z,98137.94
2023-03-18T00:18:22.152Z,98135.53
2023-03-18T00:19:25.234Z,98138.53
2023-03-18T00:20:38.646Z,98138.03
2023-03-18T00:21:40.676Z,98140.94
2023-03-18T00:22:43.413Z,98144.72
2023-03-18T00:23:45.225Z,98145.31
2023-03-18T00:24:48.976Z,98145.81
2023-03-18T00:25:54.701Z,98149.59
2023-03-18T00:26:57.162Z,98147.72
2023-03-18T00:27:59.299Z,98153.41
2023-03-18T00:29:02.158Z,98148.31
2023-03-18T00:30:05.854Z,98156.41
2023-03-18T00:31:11.902Z,98153.09
2023-03-18T00:32:14.674Z,98152.59
2023-03-18T00:33:18.005Z,98147.50
2023-03-18T00:34:20.949Z,98147.50
2023-03-18T00:35:24.574Z,98152.09
2023-03-18T00:36:26.510Z,98151.31
2023-03-18T00:37:31.640Z,98148.91
2023-03-18T00:38:35.480Z,98155.59
2023-03-18T00:39:37.459Z,98158.28
2023-03-18T00:40:43.373Z,98164.78
2023-03-18T00:41:45.378Z,98159.69
2023-03-18T00:42:47.662Z,98161.28
2023-03-18T00:43:54.082Z,98163.19
2023-03-18T00:44:56.642Z,98169.06
2023-03-18T00:45:59.332Z,98166.13
2023-03-18T00:47:01.407Z,98162.63
2023-03-18T00:48:03.886Z,98163.75
2023-03-18T00:49:08.732Z,98162.13
2023-03-18T00:50:11.626Z,98169.13
2023-03-18T00:51:17.015Z,98170.22
2023-03-18T00:52:19.611Z,98163.25
2023-03-18T00:53:21.553Z,98170.81
2023-03-18T00:54:24.722Z,98167.03
2023-03-18T00:55:27.423Z,98173.22
2023-03-18T00:56:32.172Z,98165.63
2023-03-18T00:57:34.699Z,98166.22
2023-03-18T00:58:37.163Z,98165.94
2023-03-18T00:59:39.069Z,98170.81
2023-03-18T01:00:41.377Z,98163.84
2023-03-18T01:01:43.269Z,98169.22
2023-03-18T01:02:45.213Z,98168.41
2023-03-18T01:03:50.084Z,98168.41
2023-03-18T01:04:53.316Z,98169.22
2023-03-18T01:05:56.487Z,98167.13
2023-03-18T01:06:58.511Z,98167.91
2023-03-18T01:08:00.656Z,98167.63
2023-03-18T01:09:05.352Z,98165.22
2023-03-18T01:10:09.207Z,98160.91
2023-03-18T01:11:11.550Z,98160.09
2023-03-18T01:12:13.751Z,98163.59
2023-03-18T01:13:16.065Z,98162.00
2023-03-18T01:14:19.886Z,98161.19
2023-03-18T01:15:23.304Z,98159.59
2023-03-18T01:16:25.330Z,98168.97
2023-03-18T01:17:27.326Z,98162.28
2023-03-18T01:18:30.023Z,98158.78
2023-03-18T01:19:32.587Z,98155.00
2023-03-18T01:20:35.808Z,98158.78
2023-03-18T01:21:38.167Z,98157.69
2023-03-18T01:22:43.095Z,98152.31
2023-03-18T01:23:45.510Z,98155.31
2023-03-18T01:24:47.351Z,98155.81
2023-03-18T01:25:49.361Z,98159.09
2023-03-18T01:26:51.150Z,98160.19
2023-03-18T01:27:54.214Z,98164.47
2023-03-18T01:28:56.074Z,98162.09
2023-03-18T01:29:58.501Z,98164.78
2023-03-18T01:31:00.553Z,98164.78
2023-03-18T01:32:03.234Z,98170.16
2023-03-18T01:33:07.669Z,98163.19
2023-03-18T01:34:09.545Z,98167.47
2023-03-18T01:35:12.604Z,98157.00
2023-03-18T01:36:15.552Z,98165.06
2023-03-18T01:37:19.581Z,98160.78
2023-03-18T01:38:23.923Z,98164.56
2023-03-18T01:39:25.829Z,98159.69
2023-03-18T01:40:28.625Z,98162.97
2023-03-18T01:41:31.195Z,98165.66
2023-03-18T01:42:33.387Z,98160.28
2023-03-18T01:43:40.631Z,98163.75
2023-03-18T01:44:42.536Z,98171.56
2023-03-18T01:45:54.062Z,98162.59
2023-03-18T01:46:56.816Z,98171.84
2023-03-18T01:47:58.770Z,98167.25
2023-03-18T01:49:04.974Z,98166.16
2023-03-18T01:50:07.169Z,98166.72
2023-03-18T01:51:11.676Z,98158.16
2023-03-18T01:52:21.396Z,98169.16
2023-03-18T01:53:24.024Z,98162.44
2023-03-18T01:54:31.525Z,98165.38
2023-03-18T01:55:35.407Z,98167.28
2023-03-18T01:56:41.395Z,98167.28
2023-03-18T01:57:44.620Z,98161.41
2023-03-18T01:58:52.545Z,98172.66
2023-03-18T01:59:57.351Z,98169.97
2023-03-18T02:01:09.785Z,98170.22
2023-03-18T02:02:16.080Z,98167.03
2023-03-18T02:03:20.297Z,98171.38
2023-03-18T02:04:28.772Z,98166.50
2023-03-18T02:05:30.765Z,98168.69
2023-03-18T02:06:33.355Z,98170.56
2023-03-18T02:07:36.993Z,98164.38
2023-03-18T02:08:40.318Z,98174.34
2023-03-18T02:09:42.335Z,98168.16
2023-03-18T02:10:45.467Z,98167.66
2023-03-18T02:11:51.737Z,98168.47
2023-03-18T02:13:01.177Z,98167.06
2023-03-18T02:14:04.192Z,98167.38
2023-03-18T02:15:16.544Z,98160.09
2023-03-18T02:16:32.439Z,98168.38
2023-03-18T02:17:41.801Z,98166.78
2023-03-18T02:19:29.181Z,98167.97
2023-03-18T02:20:51.714Z,98170.16
2023-03-18T02:22:22.688Z,98172.91
2023-03-18T02:23:55.328Z,98177.78
2023-03-18T02:25:31.778Z,98171.47
2023-03-18T02:26:43.917Z,98175.38
2023-03-18T02:27:59.262Z,98176.25
2023-03-18T02:29:05.819Z,98178.19
2023-03-18T02:30:18.741Z,98173.84
2023-03-18T02:31:21.476Z,98170.72
2023-03-18T02:32:28.767Z,98168.81
2023-03-18T02:33:36.748Z,98170.72
2023-03-18T02:34:40.826Z,98162.13
2023-03-18T02:35:47.368Z,98170.72
2023-03-18T02:36:49.329Z,98173.19
2023-03-18T02:37:51.157Z,98171.56
2023-03-18T02:38:53.049Z,98168.06
2023-03-18T02:39:54.955Z,98164.56
2023-03-18T02:40:57.075Z,98169.44
2023-03-18T02:41:58.959Z,98166.47
2023-03-18T02:43:32.419Z,98167.88
2023-03-18T02:44:43.276Z,98170.72
2023-03-18T02:46:06.589Z,98176.09
2023-03-18T02:47:19.862Z,98172.59
2023-03-18T02:48:29.230Z,98171.28
2023-03-18T02:49:32.923Z,98172.94
2023-03-18T02:50:34.833Z,98178.31
2023-03-18T02:51:38.133Z,98176.72
2023-03-18T02:52:40.019Z,98172.44
2023-03-18T02:53:43.338Z,98179.72
2023-03-18T02:54:45.356Z,98174.34
2023-03-18T02:55:47.858Z,98175.94
2023-03-18T02:56:49.980Z,98173.25
2023-03-18T02:57:51.737Z,98177.31
2023-03-18T02:58:53.708Z,98172.72
2023-03-18T02:59:55.896Z,98175.72
2023-03-18T03:00:57.747Z,98182.69
2023-03-18T03:02:00.287Z,98176.00
2023-03-18T03:03:02.223Z,98189.19
2023-03-18T03:04:05.048Z,98188.09
2023-03-18T03:05:09.193Z,98187.06
2023-03-18T03:06:11.632Z,98192.66
2023-03-18T03:07:13.662Z,98191.88
2023-03-18T03:08:16.663Z,98184.59
2023-03-18T03:09:18.981Z,98190.50
2023-03-18T03:10:21.212Z,98193.47
2023-03-18T03:11:23.747Z,98188.09
2023-03-18T03:12:25.801Z,98184.88
2023-03-18T03:13:28.226Z,98188.38
2023-03-18T03:14:30.138Z,98194.84
2023-03-18T03:15:33.143Z,98188.69
2023-03-18T03:16:35.504Z,98183.78
2023-03-18T03:17:37.561Z,98184.88
2023-03-18T03:18:40.471Z,98185.97
2023-03-18T03:19:42.358Z,98191.38
2023-03-18T03:20:44.887Z,98197.00
2023-03-18T03:21:46.761Z,98190.81
2023-03-18T03:22:48.559Z,98190.81
2023-03-18T03:23:51.470Z,98194.31
2023-03-18T03:24:54.276Z,98196.22
2023-03-18T03:25:57.191Z,98209.69
2023-03-18T03:26:59.076Z,98205.38
2023-03-18T03:28:01.349Z,98200.78
2023-03-18T03:29:05.075Z,98199.19
2023-03-18T03:30:11.763Z,98207.53
2023-03-18T03:31:14.344Z,98202.69
2023-03-18T03:32:17.098Z,98198.09
2023-03-18T03:33:19.020Z,98194.31
2023-03-18T03:34:20.871Z,98206.47
2023-03-18T03:35:24.160Z,98199.50
2023-03-18T03:36:26.587Z,98206.97
2023-03-18T03:37:28.522Z,98206.19
2023-03-18T03:38:30.365Z,98211.84
2023-03-18T03:39:32.670Z,98211.06
2023-03-18T03:40:35.091Z,98202.97
2023-03-18T03:41:36.938Z,98214.03
2023-03-18T03:42:39.245Z,98208.94
2023-03-18T03:43:42.188Z,98212.16
2023-03-18T03:44:43.994Z,98211.34
2023-03-18T03:45:46.026Z,98206.25
2023-03-18T03:46:48.583Z,98205.97
2023-03-18T03:47:51.345Z,98205.97
2023-03-18T03:48:53.242Z,98211.06
2023-03-18T03:49:55.178Z,98210.56
2023-03-18T03:50:57.156Z,98209.47
2023-03-18T03:51:59.370Z,98208.66
2023-03-18T03:53:02.491Z,98208.94
2023-03-18T03:54:04.563Z,98209.25
2023-03-18T03:55:09.952Z,98203.06
2023-03-18T03:56:12.038Z,98208.16
2023-03-18T03:57:13.965Z,98210.84
2023-03-18T03:58:15.940Z,98211.94
2023-03-18T03:59:18.942Z,98201.16
2023-03-18T04:00:24.079Z,98201.16
2023-03-18T04:01:27.266Z,98207.34
2023-03-18T04:02:29.288Z,98201.16
2023-03-18T04:03:31.223Z,98203.34
2023-03-18T04:04:33.426Z,98203.59
2023-03-18T04:05:35.257Z,98205.50
2023-03-18T04:06:37.047Z,98205.25
2023-03-18T04:07:41.353Z,98209.78
2023-03-18T04:08:43.152Z,98207.41
2023-03-18T04:09:45.032Z,98209.78
2023-03-18T04:10:47.032Z,98208.47
2023-03-18T04:11:48.884Z,98206.31
2023-03-18T04:12:51.045Z,98208.19
2023-03-18T04:13:53.146Z,98204.69
2023-03-18T04:14:55.530Z,98205.78
2023-03-18T04:15:57.382Z,98206.31
2023-03-18T04:17:00.362Z,98210.38
2023-03-18T04:18:06.749Z,98214.66
2023-03-18T04:19:10.020Z,98220.84
2023-03-18T04:20:13.355Z,98217.34
2023-03-18T04:21:15.181Z,98210.38
2023-03-18T04:22:18.259Z,98214.16
2023-03-18T04:23:20.790Z,98210.38
2023-03-18T04:24:23.423Z,98213.34
2023-03-18T04:25:25.335Z,98210.66
2023-03-18T04:26:28.432Z,98219.03
2023-03-18T04:27:30.689Z,98208.78
2023-03-18T04:28:33.011Z,98213.06
2023-03-18T04:29:35.002Z,98217.94
2023-03-18T04:30:37.247Z,98214.75
2023-03-18T04:31:39.657Z,98213.66
2023-03-18T04:32:41.491Z,98218.22
2023-03-18T04:33:44.715Z,98212.84
2023-03-18T04:34:46.723Z,98214.75
2023-03-18T04:35:49.355Z,98217.72
2023-03-18T04:36:51.323Z,98212.06
2023-03-18T04:37:54.397Z,98216.63
2023-03-18T04:38:56.981Z,98208.56
2023-03-18T04:39:59.193Z,98215.84
2023-03-18T04:41:01.150Z,98218.00
2023-03-18T04:42:03.271Z,98219.63
2023-03-18T04:43:05.146Z,98218.00
2023-03-18T04:44:08.292Z,98215.03
2023-03-18T04:45:10.911Z,98219.63
2023-03-18T04:46:12.796Z,98223.41
2023-03-18T04:47:14.692Z,98222.84
2023-03-18T04:48:16.573Z,98222.56
2023-03-18T04:49:18.866Z,98215.31
2023-03-18T04:50:20.909Z,98217.47
2023-03-18T04:51:22.858Z,98217.19
2023-03-18T04:52:25.237Z,98220.16
2023-03-18T04:53:27.065Z,98223.66
2023-03-18T04:54:28.897Z,98219.66
2023-03-18T04:55:31.254Z,98222.34
2023-03-18T04:56:33.687Z,98222.34
2023-03-18T04:57:37.700Z,98226.94
2023-03-18T04:58:39.589Z,98217.75
2023-03-18T04:59:41.731Z,98220.16
2023-03-18T05:00:44.020Z,98221.25
2023-03-18T05:01:46.094Z,98214.78
2023-03-18T05:02:48.423Z,98219.38
2023-03-18T05:03:50.965Z,98218.56
2023-03-18T05:04:52.821Z,98218.06
2023-03-18T05:05:54.830Z,98213.47
2023-03-18T05:06:57.028Z,98215.38
2023-03-18T05:07:59.824Z,98221.84
2023-03-18T05:09:01.868Z,98225.84
2023-03-18T05:10:08.543Z,98227.16
2023-03-18T05:11:10.749Z,98220.47
2023-03-18T05:12:15.033Z,98221.03
2023-03-18T05:13:17.666Z,98221.84
2023-03-18T05:14:19.521Z,98217.84
2023-03-18T05:15:21.553Z,98224.00
2023-03-18T05:16:24.687Z,98215.94
2023-03-18T05:17:26.963Z,98226.41
2023-03-18T05:18:28.798Z,98227.50
2023-03-18T05:19:30.578Z,98227.50
2023-03-18T05:20:32.662Z,98219.72
2023-03-18T05:21:35.963Z,98225.66
2023-03-18T05:22:37.843Z,98223.50
2023-03-18T05:23:39.713Z,98220.28
2023-03-18T05:24:43.214Z,98234.78
2023-03-18T05:25:49.504Z,98223.22
2023-03-18T05:26:51.485Z,98228.88
2023-03-18T05:27:54.458Z,98226.19
2023-03-18T05:28:57.204Z,98225.41
2023-03-18T05:29:59.234Z,98225.41
2023-03-18T05:31:01.185Z,98228.88
2023-03-18T05:32:04.302Z,98228.34
2023-03-18T05:33:06.247Z,98222.13
2023-03-18T05:34:08.978Z,98226.72
2023-03-18T05:35:11.479Z,98228.59
2023-03-18T05:36:14.506Z,98222.41
2023-03-18T05:37:16.874Z,98225.66
2023-03-18T05:38:18.919Z,98234.53
2023-03-18T05:39:20.815Z,98227.28
2023-03-18T05:40:24.053Z,98231.84
2023-03-18T05:41:25.954Z,98226.44
2023-03-18T05:42:28.116Z,98229.69
2023-03-18T05:43:30.026Z,98225.09
2023-03-18T05:44:32.680Z,98229.69
2023-03-18T05:45:36.287Z,98233.97
2023-03-18T05:46:39.097Z,98233.19
2023-03-18T05:47:40.965Z,98228.09
2023-03-18T05:48:43.557Z,98229.41
2023-03-18T05:49:45.675Z,98231.00
2023-03-18T05:50:47.932Z,98224.81
2023-03-18T05:51:52.664Z,98224.81
2023-03-18T05:52:57.071Z,98229.09
2023-03-18T05:53:59.219Z,98222.94
2023-03-18T05:55:01.136Z,98227.22
2023-03-18T05:56:02.973Z,98221.84
2023-03-18T05:57:04.924Z,98227.22
2023-03-18T05:58:07.790Z,98222.06
2023-03-18T05:59:10.284Z,98225.53
2023-03-18T06:00:13.500Z,98230.94
2023-03-18T06:01:15.309Z,98225.84
2023-03-18T06:02:17.539Z,98226.94
2023-03-18T06:03:19.386Z,98228.78
2023-03-18T06:04:21.881Z,98230.13
2023-03-18T06:05:24.513Z,98234.97
2023-03-18T06:06:27.529Z,98226.34
2023-03-18T06:07:29.741Z,98238.72
2023-03-18T06:08:31.868Z,98230.38
2023-03-18T06:09:34.329Z,98230.09
2023-03-18T06:10:36.672Z,98226.59
2023-03-18T06:11:40.189Z,98234.97
2023-03-18T06:12:42.691Z,98223.09
2023-03-18T06:13:45.680Z,98236.56
2023-03-18T06:14:48.781Z,98232.78
2023-03-18T06:15:58.120Z,98234.91
2023-03-18T06:17:00.220Z,98242.75
2023-03-18T06:18:02.529Z,98244.34
2023-03-18T06:19:05.741Z,98242.75
2023-03-18T06:20:11.973Z,98239.75
2023-03-18T06:21:14.470Z,98250.03
2023-03-18T06:22:17.159Z,98244.63
2023-03-18T06:23:19.364Z,98247.63
2023-03-18T06:24:21.685Z,98244.63
2023-03-18T06:25:24.039Z,98256.19
2023-03-18T06:26:26.745Z,98252.72
2023-03-18T06:27:28.858Z,98251.63
2023-03-18T06:28:30.886Z,98255.41
2023-03-18T06:29:33.702Z,98256.50
2023-03-18T06:30:35.711Z,98251.38
2023-03-18T06:31:38.117Z,98255.94
2023-03-18T06:32:40.564Z,98251.91
2023-03-18T06:33:44.489Z,98253.81
2023-03-18T06:34:46.695Z,98260.00
2023-03-18T06:35:49.628Z,98256.75
2023-03-18T06:36:52.296Z,98259.44
2023-03-18T06:37:54.908Z,98258.38
2023-03-18T06:38:56.896Z,98261.88
2023-03-18T06:39:58.886Z,98258.66
2023-03-18T06:41:01.972Z,98268.31
2023-03-18T06:42:04.877Z,98259.44
2023-03-18T06:43:07.028Z,98258.13
2023-03-18T06:44:08.869Z,98257.03
2023-03-18T06:45:12.036Z,98260.03
2023-03-18T06:46:14.547Z,98262.72
2023-03-18T06:47:24.648Z,98261.88
2023-03-18T06:48:26.782Z,98264.81
2023-03-18T06:49:28.918Z,98270.50
2023-03-18T06:50:32.095Z,98268.09
2023-03-18T06:51:34.451Z,98267.81
2023-03-18T06:52:37.320Z,98275.09
2023-03-18T06:53:40.034Z,98275.09
2023-03-18T06:54:42.167Z,98275.88
2023-03-18T06:55:44.598Z,98270.28
2023-03-18T06:56:46.969Z,98267.28
2023-03-18T06:57:48.921Z,98274.56
2023-03-18T06:58:51.408Z,98269.47
2023-03-18T06:59:54.198Z,98268.38
2023-03-18T07:00:56.154Z,98265.41
2023-03-18T07:01:58.389Z,98267.59
2023-03-18T07:03:01.585Z,98267.59
2023-03-18T07:04:06.798Z,98269.19
2023-03-18T07:05:09.945Z,98267.59
2023-03-18T07:06:12.251Z,98276.16
2023-03-18T07:07:14.589Z,98270.78
2023-03-18T07:08:16.908Z,98270.00
2023-03-18T07:09:19.856Z,98270.28
2023-03-18T07:10:27.308Z,98268.59
2023-03-18T07:11:29.968Z,98266.50
2023-03-18T07:12:31.968Z,98270.78
2023-03-18T07:13:34.604Z,98265.41
2023-03-18T07:14:36.519Z,98273.78
2023-03-18T07:15:39.146Z,98274.84
2023-03-18T07:16:41.657Z,98277.25
2023-03-18T07:17:45.225Z,98275.38
2023-03-18T07:18:47.756Z,98278.88
2023-03-18T07:19:49.609Z,98276.16
2023-03-18T07:20:51.606Z,98281.56
2023-03-18T07:21:53.911Z,98272.16
2023-03-18T07:22:55.804Z,98272.69
2023-03-18T07:23:58.172Z,98278.34
2023-03-18T07:25:00.018Z,98279.66
2023-03-18T07:26:01.820Z,98277.78
2023-03-18T07:27:04.360Z,98281.56
2023-03-18T07:28:06.351Z,98281.56
2023-03-18T07:29:08.499Z,98279.16
2023-03-18T07:30:11.453Z,98280.47
2023-03-18T07:31:14.050Z,98278.88
2023-03-18T07:32:16.029Z,98288.81
2023-03-18T07:33:18.345Z,98282.34
2023-03-18T07:34:21.345Z,98279.94
2023-03-18T07:35:23.932Z,98288.53
2023-03-18T07:36:27.001Z,98285.34
2023-03-18T07:37:28.917Z,98288.81
2023-03-18T07:38:30.880Z,98291.22
2023-03-18T07:39:33.814Z,98287.75
2023-03-18T07:40:36.748Z,98288.25
2023-03-18T07:41:39.288Z,98287.75
2023-03-18T07:42:41.203Z,98290.13
2023-03-18T07:43:43.556Z,98292.03
2023-03-18T07:44:45.668Z,98289.34
2023-03-18T07:45:47.597Z,98289.34
2023-03-18T07:46:49.562Z,98293.38
2023-03-18T07:47:51.570Z,98282.34
2023-03-18T07:48:53.950Z,98293.63
2023-03-18T07:49:56.301Z,98293.63
2023-03-18T07:50:59.461Z,98294.44
2023-03-18T07:52:02.211Z,98297.66
2023-03-18T07:53:04.918Z,98289.84
2023-03-18T07:54:06.825Z,98289.59
2023-03-18T07:55:09.665Z,98290.94
2023-03-18T07:56:11.775Z,98288.00
2023-03-18T07:57:14.125Z,98293.38
2023-03-18T07:58:15.999Z,98285.81
2023-03-18T07:59:18.845Z,98292.28
2023-03-18T08:00:22.528Z,98297.38
2023-03-18T08:01:25.676Z,98293.88
2023-03-18T08:02:28.404Z,98297.38
2023-03-18T08:03:30.284Z,98294.69
2023-03-18T08:04:32.587Z,98298.19
2023-03-18T08:05:35.244Z,98298.19
2023-03-18T08:06:37.944Z,98290.09
2023-03-18T08:07:39.768Z,98293.31
2023-03-18T08:08:42.499Z,98299.78
2023-03-18T08:09:44.874Z,98289.53
2023-03-18T08:10:46.763Z,98294.09
2023-03-18T08:11:48.755Z,98291.13
2023-03-18T08:12:53.565Z,98294.91
2023-03-18T08:13:55.859Z,98297.31
2023-03-18T08:14:58.444Z,98297.31
2023-03-18T08:16:00.307Z,98303.78
2023-03-18T08:17:03.746Z,98307.28
2023-03-18T08:18:09.087Z,98304.00
2023-03-18T08:19:11.954Z,98302.41
2023-03-18T08:20:14.694Z,98310.22
2023-03-18T08:21:16.598Z,98312.91
2023-03-18T08:22:19.341Z,98312.91
2023-03-18T08:23:21.599Z,98310.47
2023-03-18T08:24:24.525Z,98319.91
2023-03-18T08:25:26.699Z,98314.22
2023-03-18T08:26:28.516Z,98321.50
2023-03-18T08:27:30.487Z,98316.41
2023-03-18T08:28:32.672Z,98319.91
2023-03-18T08:29:35.035Z,98317.72
2023-03-18T08:30:39.615Z,98316.91
2023-03-18T08:31:41.464Z,98320.13
2023-03-18T08:32:44.718Z,98325.22
2023-03-18T08:33:47.556Z,98320.63
2023-03-18T08:34:49.416Z,98321.72
2023-03-18T08:35:52.134Z,98322.25
2023-03-18T08:36:54.121Z,98320.63
2023-03-18T08:37:56.286Z,98319.03
2023-03-18T08:38:58.353Z,98322.25
2023-03-18T08:40:00.499Z,98317.94
2023-03-18T08:41:04.285Z,98314.16
2023-03-18T08:42:06.983Z,98308.78
2023-03-18T08:43:09.964Z,98319.53
2023-03-18T08:44:12.456Z,98319.25
2023-03-18T08:45:15.864Z,98316.56
2023-03-18T08:46:18.709Z,98321.69
2023-03-18T08:47:21.328Z,98315.75
2023-03-18T08:48:24.818Z,98321.69
2023-03-18T08:49:26.887Z,98316.81
2023-03-18T08:50:29.657Z,98327.31
2023-03-18T08:51:32.652Z,98314.94
2023-03-18T08:52:35.228Z,98319.50
2023-03-18T08:53:38.297Z,98313.31
2023-03-18T08:54:40.178Z,98319.22
2023-03-18T08:55:42.275Z,98318.72
2023-03-18T08:56:44.434Z,98320.03
2023-03-18T08:57:47.880Z,98318.13
2023-03-18T08:58:50.132Z,98313.56
2023-03-18T08:59:52.024Z,98314.63
2023-03-18T09:00:56.355Z,98308.16
2023-03-18T09:01:58.533Z,98311.66
2023-03-18T09:03:00.669Z,98308.97
2023-03-18T09:04:02.822Z,98298.19
2023-03-18T09:05:05.769Z,98307.06
2023-03-18T09:06:07.978Z,98308.97
2023-03-18T09:07:11.011Z,98304.66
2023-03-18T09:08:13.594Z,98305.47
2023-03-18T09:09:15.948Z,98297.38
2023-03-18T09:10:18.376Z,98311.38
2023-03-18T09:11:20.385Z,98307.59
2023-03-18T09:12:22.840Z,98306.50
2023-03-18T09:13:25.685Z,98306.78
2023-03-18T09:14:27.604Z,98309.97
2023-03-18T09:15:29.830Z,98307.84
2023-03-18T09:16:31.753Z,98306.19
2023-03-18T09:17:51.006Z,98307.03
2023-03-18T09:18:55.789Z,98310.75
2023-03-18T09:19:57.960Z,98302.97
2023-03-18T09:20:59.813Z,98299.47
2023-03-18T09:22:01.601Z,98298.66
2023-03-18T09:23:04.019Z,98299.47
2023-03-18T09:24:07.502Z,98308.06
2023-03-18T09:25:10.616Z,98300.25
2023-03-18T09:26:12.770Z,98304.28
2023-03-18T09:27:14.983Z,98308.06
2023-03-18T09:28:16.967Z,98306.44
2023-03-18T09:29:18.960Z,98309.66
2023-03-18T09:30:21.676Z,98308.56
2023-03-18T09:31:23.590Z,98310.44
2023-03-18T09:32:26.202Z,98309.66
2023-03-18T09:33:28.480Z,98313.16
2023-03-18T09:34:32.875Z,98301.00
2023-03-18T09:35:35.722Z,98306.38
2023-03-18T09:36:38.029Z,98307.47
2023-03-18T09:37:40.868Z,98301.78
2023-03-18T09:38:42.763Z,98297.75
2023-03-18T09:39:47.693Z,98300.44
2023-03-18T09:41:20.995Z,98291.91
2023-03-18T09:42:37.730Z,98298.47
2023-03-18T09:44:01.103Z,98293.50
2023-03-18T09:45:20.174Z,98289.56
2023-03-18T09:46:25.386Z,98287.44
2023-03-18T09:47:33.471Z,98289.84
2023-03-18T09:48:56.717Z,98279.88
2023-03-18T09:50:17.082Z,98288.34
2023-03-18T09:51:19.413Z,98287.44
2023-03-18T09:52:53.646Z,98286.16
2023-03-18T09:54:36.888Z,98291.72
2023-03-18T09:55:57.145Z,98285.66
2023-03-18T09:57:00.857Z,98294.13
2023-03-18T09:58:15.447Z,98288.47
2023-03-18T09:59:44.739Z,98278.59
2023-03-18T10:00:47.884Z,98273.41
2023-03-18T10:01:55.706Z,98283.09
2023-03-18T10:03:14.359Z,98285.13
2023-03-18T10:04:42.852Z,98282.88
2023-03-18T10:05:53.746Z,98280.53
2023-03-18T10:07:12.103Z,98281.63
2023-03-18T10:08:24.642Z,98281.41
2023-03-18T10:09:42.210Z,98280.53
2023-03-18T10:10:47.408Z,98280.91
2023-03-18T10:11:54.004Z,98288.19
2023-03-18T10:13:21.598Z,98277.00
2023-03-18T10:14:26.468Z,98276.81
2023-03-18T10:15:46.237Z,98276.50
2023-03-18T10:17:15.217Z,98274.22
2023-03-18T10:18:22.124Z,98274.94
2023-03-18T10:19:25.144Z,98272.31
2023-03-18T10:20:35.831Z,98278.22
2023-03-18T10:21:47.887Z,98282.72
2023-03-18T10:23:14.923Z,98275.69
2023-03-18T10:24:42.510Z,98279.09
2023-03-18T10:25:54.719Z,98275.94
2023-03-18T10:27:08.789Z,98281.94
2023-03-18T10:28:50.295Z,98281.16
2023-03-18T10:30:25.349Z,98275.31
2023-03-18T10:31:33.433Z,98276.75
2023-03-18T10:32:49.969Z,98275.16
2023-03-18T10:34:17.046Z,98276.25
2023-03-18T10:35:55.105Z,98273.19
2023-03-18T10:37:17.939Z,98279.91
2023-03-18T10:38:27.900Z,98274.34
2023-03-18T10:39:31.493Z,98280.31
2023-03-18T10:40:41.379Z,98276.53
2023-03-18T10:41:49.983Z,98275.44
2023-03-18T10:42:56.367Z,98278.44
2023-03-18T10:44:03.273Z,98280.53
2023-03-18T10:45:29.821Z,98280.94
2023-03-18T10:46:35.684Z,98275.94
2023-03-18T10:47:45.445Z,98271.66
2023-03-18T10:49:07.923Z,98274.22
2023-03-18T10:50:32.541Z,98266.09
2023-03-18T10:51:53.842Z,98264.47
2023-03-18T10:53:12.049Z,98263.22
2023-03-18T10:54:24.264Z,98254.06
2023-03-18T10:55:35.468Z,98252.44
2023-03-18T10:56:37.804Z,98255.72
2023-03-18T10:57:39.721Z,98250.06
2023-03-18T10:58:43.371Z,98253.34
2023-03-18T10:59:46.014Z,98251.94
2023-03-18T11:00:47.861Z,98258.44
2023-03-18T11:01:59.682Z,98253.75
2023-03-18T11:03:04.388Z,98253.53
2023-03-18T11:04:14.979Z,98242.97
2023-03-18T11:05:27.079Z,98254.56
2023-03-18T11:06:45.091Z,98246.19
2023-03-18T11:08:07.825Z,98244.22
2023-03-18T11:09:16.712Z,98245.75
2023-03-18T11:10:25.857Z,98247.06
2023-03-18T11:11:33.027Z,98244.22
2023-03-18T11:12:36.298Z,98248.00
2023-03-18T11:13:38.170Z,98258.78
2023-03-18T11:14:40.344Z,98248.00
2023-03-18T11:15:51.486Z,98248.22
2023-03-18T11:17:19.282Z,98254.34
2023-03-18T11:18:27.038Z,98249.00
2023-03-18T11:19:39.352Z,98248.22
2023-03-18T11:20:45.393Z,98251.78
2023-03-18T11:21:49.062Z,98249.16
2023-03-18T11:22:57.476Z,98251.56
2023-03-18T11:24:10.906Z,98246.97
2023-03-18T11:25:16.349Z,98239.41
2023-03-18T11:26:26.610Z,98244.50
2023-03-18T11:27:42.241Z,98238.22
2023-03-18T11:28:45.545Z,98242.69
2023-03-18T11:30:00.470Z,98243.91
2023-03-18T11:31:06.482Z,98242.09
2023-03-18T11:32:25.219Z,98243.06
2023-03-18T11:33:35.054Z,98234.53
2023-03-18T11:34:37.658Z,98236.22
2023-03-18T11:36:05.079Z,98231.69
2023-03-18T11:37:11.763Z,98237.72
2023-03-18T11:38:21.740Z,98225.84
2023-03-18T11:39:25.636Z,98226.22
2023-03-18T11:40:28.939Z,98224.94
2023-03-18T11:41:30.824Z,98230.81
2023-03-18T11:42:32.823Z,98223.81
2023-03-18T11:43:37.833Z,98218.44
2023-03-18T11:44:40.538Z,98223.03
2023-03-18T11:46:01.186Z,98223.91
2023-03-18T11:47:12.437Z,98218.88
2023-03-18T11:48:36.817Z,98221.72
2023-03-18T11:49:39.187Z,98220.25
2023-03-18T11:51:09.221Z,98211.03
2023-03-18T11:52:14.091Z,98217.47
2023-03-18T11:53:41.753Z,98219.03
2023-03-18T11:55:23.538Z,98209.25
2023-03-18T11:56:42.450Z,98210.63
2023-03-18T11:58:21.696Z,98208.00
2023-03-18T11:59:35.443Z,98199.56
2023-03-18T12:00:52.560Z,98195.78
2023-03-18T12:02:57.915Z,98196.66
2023-03-18T12:04:39.945Z,98194.03
2023-03-18T12:06:02.423Z,98194.41
2023-03-18T12:07:45.605Z,98189.69
2023-03-18T12:09:14.275Z,98198.63
2023-03-18T12:11:27.092Z,98192.28
2023-03-18T12:13:02.254Z,98186.84
2023-03-18T12:14:45.912Z,98192.81
2023-03-18T12:16:13.038Z,98202.19
2023-03-18T12:17:46.748Z,98195.28
2023-03-18T12:18:54.816Z,98199.94
2023-03-18T12:20:43.866Z,98194.72
2023-03-18T12:22:06.253Z,98186.63
2023-03-18T12:24:13.066Z,98189.44
2023-03-18T12:25:38.886Z,98189.81
2023-03-18T12:27:10.494Z,98178.59
2023-03-18T12:28:38.115Z,98181.25
2023-03-18T12:30:36.680Z,98184.16
2023-03-18T12:32:03.586Z,98181.59
2023-03-18T12:33:29.634Z,98189.38
2023-03-18T12:35:05.873Z,98176.00
2023-03-18T12:36:30.045Z,98177.31
2023-03-18T12:38:08.439Z,98180.50
2023-03-18T12:39:47.853Z,98182.19
2023-03-18T12:41:32.133Z,98173.50
2023-03-18T12:43:05.026Z,98176.72
2023-03-18T12:44:15.659Z,98168.28
2023-03-18T12:45:22.865Z,98170.78
2023-03-18T12:46:33.618Z,98177.56
2023-03-18T12:47:48.013Z,98172.34
2023-03-18T12:49:01.495Z,98168.34
2023-03-18T12:50:16.156Z,98165.88
2023-03-18T12:51:28.274Z,98167.75
2023-03-18T12:52:40.214Z,98173.22
2023-03-18T12:53:50.234Z,98167.25
2023-03-18T12:55:21.653Z,98170.38
2023-03-18T12:56:30.036Z,98167.25
2023-03-18T12:58:02.019Z,98158.19
2023-03-18T12:59:30.244Z,98161.94
2023-03-18T13:00:57.124Z,98153.34
2023-03-18T13:02:39.757Z,98159.75
2023-03-18T13:03:45.976Z,98157.78